sensor_id;sensor_type;location;lat;lon;timestamp;pressure;altitude;pressure_sealevel;temperature;humidity
41654;BME280;68687;52.030;7.110;2023-07-29T00:01:04;99981.53;;;18.57;100.00
41654;BME280;68687;52.030;7.110;2023-07-29T00:03:35;99981.91;;;18.44;100.00
41654;BME280;68687;52.030;7.110;2023-07-29T00:06:04;99974.53;;;18.22;100.00
41654;BME280;68687;52.030;7.110;2023-07-29T00:08:29;99971.06;;;18.27;100.00
41654;BME280;68687;52.030;7.110;2023-07-29T00:10:57;99977.66;;;18.31;100.00
41654;BME280;68687;52.030;7.110;2023-07-29T00:13:22;99968.28;;;18.22;100.00
41654;BME280;68687;52.030;7.110;2023-07-29T00:15:48;99975.28;;;18.18;100.00
41654;BME280;68687;52.030;7.110;2023-07-29T00:18:19;99982.63;;;18.17;100.00
41654;BME280;68687;52.030;7.110;2023-07-29T00:20:44;99973.66;;;18.17;100.00
41654;BME280;68687;52.030;7.110;2023-07-29T00:23:10;99981.53;;;18.18;100.00
41654;BME280;68687;52.030;7.110;2023-07-29T00:26:10;99980.16;;;18.16;100.00
41654;BME280;68687;52.030;7.110;2023-07-29T00:28:35;99968.97;;;18.12;100.00
41654;BME280;68687;52.030;7.110;2023-07-29T00:31:01;99974.66;;;18.11;100.00
41654;BME280;68687;52.030;7.110;2023-07-29T00:33:27;99977.63;;;18.09;100.00
41654;BME280;68687;52.030;7.110;2023-07-29T00:35:52;99983.63;;;18.11;100.00
41654;BME280;68687;52.030;7.110;2023-07-29T00:38:17;99978.84;;;18.18;100.00
41654;BME280;68687;52.030;7.110;2023-07-29T00:40:46;99974.69;;;18.33;100.00
41654;BME280;68687;52.030;7.110;2023-07-29T00:43:11;99973.66;;;18.17;100.00
41654;BME280;68687;52.030;7.110;2023-07-29T00:45:37;99974.91;;;18.09;100.00
41654;BME280;68687;52.030;7.110;2023-07-29T00:48:03;99973.44;;;18.40;100.00
41654;BME280;68687;52.030;7.110;2023-07-29T00:50:31;99959.31;;;18.21;100.00
41654;BME280;68687;52.030;7.110;2023-07-29T00:53:03;99966.13;;;18.24;100.00
41654;BME280;68687;52.030;7.110;2023-07-29T00:55:28;99962.59;;;18.23;100.00
41654;BME280;68687;52.030;7.110;2023-07-29T00:57:54;99957.50;;;18.27;100.00
41654;BME280;68687;52.030;7.110;2023-07-29T01:00:20;99955.09;;;18.31;100.00
41654;BME280;68687;52.030;7.110;2023-07-29T01:02:46;99951.03;;;18.11;100.00
41654;BME280;68687;52.030;7.110;2023-07-29T01:05:13;99960.56;;;18.14;100.00
41654;BME280;68687;52.030;7.110;2023-07-29T01:07:47;99964.84;;;18.10;100.00
41654;BME280;68687;52.030;7.110;2023-07-29T01:13:06;99965.69;;;18.10;100.00
41654;BME280;68687;52.030;7.110;2023-07-29T01:16:08;99969.88;;;18.01;100.00
41654;BME280;68687;52.030;7.110;2023-07-29T01:18:52;99963.28;;;17.97;100.00
41654;BME280;68687;52.030;7.110;2023-07-29T01:21:19;99963.69;;;18.06;100.00
41654;BME280;68687;52.030;7.110;2023-07-29T01:23:52;99960.00;;;18.12;100.00
41654;BME280;68687;52.030;7.110;2023-07-29T01:26:21;99968.25;;;18.39;100.00
41654;BME280;68687;52.030;7.110;2023-07-29T01:28:46;99964.25;;;18.25;100.00
41654;BME280;68687;52.030;7.110;2023-07-29T01:34:03;99971.88;;;18.28;100.00
41654;BME280;68687;52.030;7.110;2023-07-29T01:36:37;99972.22;;;18.31;100.00
41654;BME280;68687;52.030;7.110;2023-07-29T01:39:05;99972.53;;;18.35;100.00
41654;BME280;68687;52.030;7.110;2023-07-29T01:41:35;99964.88;;;18.32;100.00
41654;BME280;68687;52.030;7.110;2023-07-29T01:44:01;99967.69;;;18.37;100.00
41654;BME280;68687;52.030;7.110;2023-07-29T01:46:27;99962.09;;;18.27;100.00
41654;BME280;68687;52.030;7.110;2023-07-29T01:48:52;99954.94;;;18.37;100.00
41654;BME280;68687;52.030;7.110;2023-07-29T01:51:19;99958.03;;;18.46;100.00
41654;BME280;68687;52.030;7.110;2023-07-29T01:53:44;99936.22;;;18.41;100.00
41654;BME280;68687;52.030;7.110;2023-07-29T01:56:10;99944.88;;;18.38;100.00
41654;BME280;68687;52.030;7.110;2023-07-29T01:58:35;99946.53;;;18.39;100.00
41654;BME280;68687;52.030;7.110;2023-07-29T02:01:03;99940.41;;;18.48;100.00
41654;BME280;68687;52.030;7.110;2023-07-29T02:03:32;99944.88;;;18.38;100.00
41654;BME280;68687;52.030;7.110;2023-07-29T02:05:57;99936.06;;;18.31;100.00
41654;BME280;68687;52.030;7.110;2023-07-29T02:08:22;99934.75;;;18.55;100.00
41654;BME280;68687;52.030;7.110;2023-07-29T02:10:47;99933.44;;;18.36;100.00
41654;BME280;68687;52.030;7.110;2023-07-29T02:13:17;99924.78;;;18.39;100.00
41654;BME280;68687;52.030;7.110;2023-07-29T02:15:42;99931.19;;;18.33;100.00
41654;BME280;68687;52.030;7.110;2023-07-29T02:18:07;99925.41;;;18.46;100.00
41654;BME280;68687;52.030;7.110;2023-07-29T02:20:32;99922.19;;;18.49;100.00
41654;BME280;68687;52.030;7.110;2023-07-29T02:23:01;99921.97;;;18.34;100.00
41654;BME280;68687;52.030;7.110;2023-07-29T02:25:26;99921.50;;;18.37;100.00
41654;BME280;68687;52.030;7.110;2023-07-29T02:27:51;99925.19;;;18.31;100.00
41654;BME280;68687;52.030;7.110;2023-07-29T02:30:17;99917.78;;;18.43;100.00
41654;BME280;68687;52.030;7.110;2023-07-29T02:32:42;99920.03;;;18.51;100.00
41654;BME280;68687;52.030;7.110;2023-07-29T02:35:08;99922.75;;;18.51;100.00
41654;BME280;68687;52.030;7.110;2023-07-29T02:37:33;99909.16;;;18.51;100.00
41654;BME280;68687;52.030;7.110;2023-07-29T02:39:58;99909.44;;;18.49;100.00
41654;BME280;68687;52.030;7.110;2023-07-29T02:42:23;99907.59;;;18.55;100.00
41654;BME280;68687;52.030;7.110;2023-07-29T02:44:49;99921.34;;;18.65;100.00
41654;BME280;68687;52.030;7.110;2023-07-29T02:47:14;99929.50;;;18.65;100.00
41654;BME280;68687;52.030;7.110;2023-07-29T02:49:43;99929.06;;;18.73;100.00
41654;BME280;68687;52.030;7.110;2023-07-29T02:52:08;99925.53;;;18.56;100.00
41654;BME280;68687;52.030;7.110;2023-07-29T02:54:33;99927.59;;;18.66;100.00
41654;BME280;68687;52.030;7.110;2023-07-29T02:57:01;99921.41;;;18.70;100.00
41654;BME280;68687;52.030;7.110;2023-07-29T02:59:27;99930.94;;;18.73;100.00
41654;BME280;68687;52.030;7.110;2023-07-29T03:01:52;99916.84;;;18.76;100.00
41654;BME280;68687;52.030;7.110;2023-07-29T03:06:51;99929.09;;;18.78;100.00
41654;BME280;68687;52.030;7.110;2023-07-29T03:09:17;99918.75;;;18.75;100.00
41654;BME280;68687;52.030;7.110;2023-07-29T03:11:42;99929.88;;;18.74;100.00
41654;BME280;68687;52.030;7.110;2023-07-29T03:14:07;99926.91;;;18.75;100.00
41654;BME280;68687;52.030;7.110;2023-07-29T03:16:32;99933.41;;;18.74;100.00
41654;BME280;68687;52.030;7.110;2023-07-29T03:18:58;99911.09;;;18.72;100.00
41654;BME280;68687;52.030;7.110;2023-07-29T03:21:25;99918.53;;;18.82;100.00
41654;BME280;68687;52.030;7.110;2023-07-29T03:23:50;99918.84;;;18.86;100.00
41654;BME280;68687;52.030;7.110;2023-07-29T03:26:16;99925.09;;;18.86;100.00
41654;BME280;68687;52.030;7.110;2023-07-29T03:28:42;99925.31;;;18.79;100.00
41654;BME280;68687;52.030;7.110;2023-07-29T03:31:08;99930.81;;;18.84;100.00
41654;BME280;68687;52.030;7.110;2023-07-29T03:33:33;99929.56;;;18.70;100.00
41654;BME280;68687;52.030;7.110;2023-07-29T03:35:59;99927.47;;;18.77;100.00
41654;BME280;68687;52.030;7.110;2023-07-29T03:38:24;99932.69;;;18.84;100.00
41654;BME280;68687;52.030;7.110;2023-07-29T03:40:50;99918.94;;;18.91;100.00
41654;BME280;68687;52.030;7.110;2023-07-29T03:43:16;99917.97;;;18.80;100.00
41654;BME280;68687;52.030;7.110;2023-07-29T03:45:41;99907.03;;;18.75;100.00
41654;BME280;68687;52.030;7.110;2023-07-29T03:48:07;99907.00;;;18.70;100.00
41654;BME280;68687;52.030;7.110;2023-07-29T03:50:34;99915.09;;;18.65;100.00
41654;BME280;68687;52.030;7.110;2023-07-29T03:53:00;99907.19;;;18.63;100.00
41654;BME280;68687;52.030;7.110;2023-07-29T03:55:26;99906.75;;;18.54;100.00
41654;BME280;68687;52.030;7.110;2023-07-29T03:57:51;99909.22;;;18.56;100.00
41654;BME280;68687;52.030;7.110;2023-07-29T04:00:16;99913.69;;;18.62;100.00
41654;BME280;68687;52.030;7.110;2023-07-29T04:02:42;99906.13;;;18.64;100.00
41654;BME280;68687;52.030;7.110;2023-07-29T04:05:08;99905.72;;;18.77;100.00
41654;BME280;68687;52.030;7.110;2023-07-29T04:07:34;99903.81;;;18.78;100.00
41654;BME280;68687;52.030;7.110;2023-07-29T04:10:00;99897.38;;;18.62;100.00
41654;BME280;68687;52.030;7.110;2023-07-29T04:12:26;99904.81;;;18.50;100.00
41654;BME280;68687;52.030;7.110;2023-07-29T04:14:51;99899.25;;;18.40;100.00
41654;BME280;68687;52.030;7.110;2023-07-29T04:17:16;99904.44;;;18.41;100.00
41654;BME280;68687;52.030;7.110;2023-07-29T04:19:42;99907.66;;;18.38;100.00
41654;BME280;68687;52.030;7.110;2023-07-29T04:22:07;99897.63;;;18.39;100.00
41654;BME280;68687;52.030;7.110;2023-07-29T04:24:32;99901.00;;;18.51;100.00
41654;BME280;68687;52.030;7.110;2023-07-29T04:26:57;99898.59;;;18.33;100.00
41654;BME280;68687;52.030;7.110;2023-07-29T04:29:23;99912.88;;;18.23;100.00
41654;BME280;68687;52.030;7.110;2023-07-29T04:31:49;99895.88;;;18.33;100.00
41654;BME280;68687;52.030;7.110;2023-07-29T04:34:15;99885.66;;;18.40;100.00
41654;BME280;68687;52.030;7.110;2023-07-29T04:36:40;99880.59;;;18.48;100.00
41654;BME280;68687;52.030;7.110;2023-07-29T04:39:05;99878.91;;;18.42;100.00
41654;BME280;68687;52.030;7.110;2023-07-29T04:41:31;99883.59;;;18.47;100.00
41654;BME280;68687;52.030;7.110;2023-07-29T04:43:56;99887.72;;;18.33;100.00
41654;BME280;68687;52.030;7.110;2023-07-29T04:46:21;99889.53;;;18.44;100.00
41654;BME280;68687;52.030;7.110;2023-07-29T04:48:47;99887.25;;;18.36;100.00
41654;BME280;68687;52.030;7.110;2023-07-29T04:51:12;99899.94;;;18.30;100.00
41654;BME280;68687;52.030;7.110;2023-07-29T04:53:37;99886.59;;;18.29;100.00
41654;BME280;68687;52.030;7.110;2023-07-29T04:56:03;99893.63;;;18.46;100.00
41654;BME280;68687;52.030;7.110;2023-07-29T04:58:28;99897.19;;;18.69;100.00
41654;BME280;68687;52.030;7.110;2023-07-29T05:00:55;99899.03;;;18.63;100.00
41654;BME280;68687;52.030;7.110;2023-07-29T05:03:20;99886.31;;;18.69;100.00
41654;BME280;68687;52.030;7.110;2023-07-29T05:05:46;99904.53;;;18.68;100.00
41654;BME280;68687;52.030;7.110;2023-07-29T05:08:11;99887.53;;;18.61;100.00
41654;BME280;68687;52.030;7.110;2023-07-29T05:10:36;99897.75;;;18.71;100.00
41654;BME280;68687;52.030;7.110;2023-07-29T05:13:02;99898.31;;;18.73;100.00
41654;BME280;68687;52.030;7.110;2023-07-29T05:15:27;99895.03;;;18.71;100.00
41654;BME280;68687;52.030;7.110;2023-07-29T05:17:52;99898.84;;;18.70;100.00
41654;BME280;68687;52.030;7.110;2023-07-29T05:20:18;99900.47;;;18.71;100.00
41654;BME280;68687;52.030;7.110;2023-07-29T05:22:43;99896.53;;;18.83;100.00
41654;BME280;68687;52.030;7.110;2023-07-29T05:25:08;99898.13;;;18.79;100.00
41654;BME280;68687;52.030;7.110;2023-07-29T05:27:34;99890.78;;;18.58;100.00
41654;BME280;68687;52.030;7.110;2023-07-29T05:29:59;99883.03;;;18.67;100.00
41654;BME280;68687;52.030;7.110;2023-07-29T05:32:24;99885.91;;;18.60;100.00
41654;BME280;68687;52.030;7.110;2023-07-29T05:34:50;99887.34;;;18.63;100.00
41654;BME280;68687;52.030;7.110;2023-07-29T05:37:15;99877.97;;;18.75;100.00
41654;BME280;68687;52.030;7.110;2023-07-29T05:39:41;99881.50;;;18.76;100.00
41654;BME280;68687;52.030;7.110;2023-07-29T05:42:06;99885.00;;;18.71;100.00
41654;BME280;68687;52.030;7.110;2023-07-29T05:44:31;99888.00;;;18.53;100.00
41654;BME280;68687;52.030;7.110;2023-07-29T05:46:57;99894.16;;;18.65;100.00
41654;BME280;68687;52.030;7.110;2023-07-29T05:49:22;99907.25;;;18.68;100.00
41654;BME280;68687;52.030;7.110;2023-07-29T05:51:48;99921.50;;;18.59;100.00
41654;BME280;68687;52.030;7.110;2023-07-29T05:54:13;99928.00;;;18.58;100.00
41654;BME280;68687;52.030;7.110;2023-07-29T05:56:38;99934.50;;;18.57;100.00
41654;BME280;68687;52.030;7.110;2023-07-29T05:59:04;99943.44;;;18.52;100.00
41654;BME280;68687;52.030;7.110;2023-07-29T06:01:29;99953.72;;;18.50;100.00
41654;BME280;68687;52.030;7.110;2023-07-29T06:03:54;99944.19;;;18.47;100.00
41654;BME280;68687;52.030;7.110;2023-07-29T06:06:20;99953.78;;;18.55;100.00
41654;BME280;68687;52.030;7.110;2023-07-29T06:08:45;99953.41;;;18.46;100.00
41654;BME280;68687;52.030;7.110;2023-07-29T06:11:10;99964.72;;;18.60;100.00
41654;BME280;68687;52.030;7.110;2023-07-29T06:13:35;99952.09;;;18.49;100.00
41654;BME280;68687;52.030;7.110;2023-07-29T06:16:01;99961.38;;;18.53;100.00
41654;BME280;68687;52.030;7.110;2023-07-29T06:18:26;99945.31;;;18.51;99.96
41654;BME280;68687;52.030;7.110;2023-07-29T06:20:51;99947.72;;;18.48;98.71
41654;BME280;68687;52.030;7.110;2023-07-29T06:23:17;99949.25;;;18.39;98.31
41654;BME280;68687;52.030;7.110;2023-07-29T06:25:42;99961.06;;;18.49;97.46
41654;BME280;68687;52.030;7.110;2023-07-29T06:28:09;99961.00;;;18.44;97.03
41654;BME280;68687;52.030;7.110;2023-07-29T06:30:34;99974.22;;;18.58;96.85
41654;BME280;68687;52.030;7.110;2023-07-29T06:32:59;99959.72;;;18.52;96.81
41654;BME280;68687;52.030;7.110;2023-07-29T06:35:25;99965.94;;;18.47;96.82
41654;BME280;68687;52.030;7.110;2023-07-29T06:37:50;99981.34;;;18.42;94.88
41654;BME280;68687;52.030;7.110;2023-07-29T06:40:15;99976.75;;;18.26;93.06
41654;BME280;68687;52.030;7.110;2023-07-29T06:42:40;99987.03;;;18.40;92.79
41654;BME280;68687;52.030;7.110;2023-07-29T06:45:07;99982.09;;;18.37;93.63
41654;BME280;68687;52.030;7.110;2023-07-29T06:47:33;99976.69;;;18.20;92.82
41654;BME280;68687;52.030;7.110;2023-07-29T06:49:58;99984.63;;;18.44;92.62
41654;BME280;68687;52.030;7.110;2023-07-29T06:52:23;99981.59;;;18.40;91.42
41654;BME280;68687;52.030;7.110;2023-07-29T06:54:48;99976.19;;;18.23;91.22
41654;BME280;68687;52.030;7.110;2023-07-29T06:57:14;99978.88;;;18.40;91.97
41654;BME280;68687;52.030;7.110;2023-07-29T06:59:39;99982.03;;;18.54;91.65
41654;BME280;68687;52.030;7.110;2023-07-29T07:02:06;99990.97;;;18.33;90.77
41654;BME280;68687;52.030;7.110;2023-07-29T07:04:31;99986.63;;;18.32;90.52
41654;BME280;68687;52.030;7.110;2023-07-29T07:06:57;99998.03;;;18.50;90.29
41654;BME280;68687;52.030;7.110;2023-07-29T07:09:22;99997.22;;;18.50;89.08
41654;BME280;68687;52.030;7.110;2023-07-29T07:11:47;99993.22;;;18.58;90.50
41654;BME280;68687;52.030;7.110;2023-07-29T07:14:12;100000.41;;;18.86;89.79
41654;BME280;68687;52.030;7.110;2023-07-29T07:16:38;100007.19;;;19.05;89.43
41654;BME280;68687;52.030;7.110;2023-07-29T07:19:04;100005.81;;;19.02;89.06
41654;BME280;68687;52.030;7.110;2023-07-29T07:21:30;100004.13;;;18.96;88.47
41654;BME280;68687;52.030;7.110;2023-07-29T07:23:55;100002.94;;;19.14;87.93
41654;BME280;68687;52.030;7.110;2023-07-29T07:26:20;100000.81;;;18.94;88.52
41654;BME280;68687;52.030;7.110;2023-07-29T07:28:45;99998.22;;;19.04;88.57
41654;BME280;68687;52.030;7.110;2023-07-29T07:31:11;99994.25;;;19.17;88.02
41654;BME280;68687;52.030;7.110;2023-07-29T07:33:36;99994.91;;;19.24;87.30
41654;BME280;68687;52.030;7.110;2023-07-29T07:36:01;100004.84;;;19.13;86.08
41654;BME280;68687;52.030;7.110;2023-07-29T07:38:27;100007.44;;;19.03;85.74
41654;BME280;68687;52.030;7.110;2023-07-29T07:40:56;99996.09;;;19.33;86.04
41654;BME280;68687;52.030;7.110;2023-07-29T07:43:22;99988.91;;;19.22;86.45
41654;BME280;68687;52.030;7.110;2023-07-29T07:45:48;99994.84;;;19.19;86.23
41654;BME280;68687;52.030;7.110;2023-07-29T07:48:13;99998.66;;;19.18;85.38
41654;BME280;68687;52.030;7.110;2023-07-29T07:50:39;99984.22;;;19.44;85.80
41654;BME280;68687;52.030;7.110;2023-07-29T07:53:05;99988.13;;;19.27;85.94
41654;BME280;68687;52.030;7.110;2023-07-29T07:55:30;99988.47;;;19.35;86.21
41654;BME280;68687;52.030;7.110;2023-07-29T07:57:55;99988.47;;;19.35;86.23
41654;BME280;68687;52.030;7.110;2023-07-29T08:00:21;99988.22;;;19.59;86.11
41654;BME280;68687;52.030;7.110;2023-07-29T08:02:46;99988.28;;;19.69;85.03
41654;BME280;68687;52.030;7.110;2023-07-29T08:05:11;99990.56;;;19.77;85.10
41654;BME280;68687;52.030;7.110;2023-07-29T08:07:37;99990.13;;;19.95;83.71
41654;BME280;68687;52.030;7.110;2023-07-29T08:10:02;99985.94;;;20.15;83.77
41654;BME280;68687;52.030;7.110;2023-07-29T08:12:27;99989.28;;;20.27;84.60
41654;BME280;68687;52.030;7.110;2023-07-29T08:14:53;99995.19;;;20.14;83.30
41654;BME280;68687;52.030;7.110;2023-07-29T08:17:18;99983.06;;;20.31;81.42
41654;BME280;68687;52.030;7.110;2023-07-29T08:19:43;99981.28;;;20.52;82.37
41654;BME280;68687;52.030;7.110;2023-07-29T08:22:09;99984.63;;;20.64;82.23
41654;BME280;68687;52.030;7.110;2023-07-29T08:24:34;99977.47;;;21.16;79.12
41654;BME280;68687;52.030;7.110;2023-07-29T08:26:59;99979.16;;;21.32;78.19
41654;BME280;68687;52.030;7.110;2023-07-29T08:29:25;99989.56;;;21.45;78.98
41654;BME280;68687;52.030;7.110;2023-07-29T08:31:50;99993.72;;;21.68;78.13
41654;BME280;68687;52.030;7.110;2023-07-29T08:34:16;99988.22;;;22.39;74.59
41654;BME280;68687;52.030;7.110;2023-07-29T08:36:42;99980.53;;;22.41;74.15
41654;BME280;68687;52.030;7.110;2023-07-29T08:39:07;99981.06;;;22.54;74.50
41654;BME280;68687;52.030;7.110;2023-07-29T08:41:37;99979.19;;;23.19;72.36
41654;BME280;68687;52.030;7.110;2023-07-29T08:44:21;99978.97;;;23.49;68.89
41654;BME280;68687;52.030;7.110;2023-07-29T08:46:48;99989.63;;;23.61;70.08
41654;BME280;68687;52.030;7.110;2023-07-29T08:49:14;99982.16;;;23.71;69.61
41654;BME280;68687;52.030;7.110;2023-07-29T08:51:42;99983.06;;;23.52;66.55
41654;BME280;68687;52.030;7.110;2023-07-29T08:54:10;99977.44;;;23.38;67.34
41654;BME280;68687;52.030;7.110;2023-07-29T08:56:35;99988.69;;;23.76;65.38
41654;BME280;68687;52.030;7.110;2023-07-29T08:59:01;99983.72;;;23.78;64.23
41654;BME280;68687;52.030;7.110;2023-07-29T09:01:27;99989.59;;;24.00;62.79
41654;BME280;68687;52.030;7.110;2023-07-29T09:03:53;99980.72;;;24.08;63.79
41654;BME280;68687;52.030;7.110;2023-07-29T09:06:19;99983.91;;;24.20;62.41
41654;BME280;68687;52.030;7.110;2023-07-29T09:08:49;99986.16;;;24.71;65.26
41654;BME280;68687;52.030;7.110;2023-07-29T09:11:16;99984.88;;;24.40;60.32
41654;BME280;68687;52.030;7.110;2023-07-29T09:13:43;99991.03;;;24.98;62.92
41654;BME280;68687;52.030;7.110;2023-07-29T09:16:09;99978.72;;;24.48;63.49
41654;BME280;68687;52.030;7.110;2023-07-29T09:18:34;99978.97;;;24.75;59.23
41654;BME280;68687;52.030;7.110;2023-07-29T09:21:00;99983.25;;;24.33;61.63
41654;BME280;68687;52.030;7.110;2023-07-29T09:23:26;99980.56;;;25.24;59.47
41654;BME280;68687;52.030;7.110;2023-07-29T09:26:00;99977.75;;;25.29;59.26
41654;BME280;68687;52.030;7.110;2023-07-29T09:28:26;99971.72;;;24.60;59.07
41654;BME280;68687;52.030;7.110;2023-07-29T09:30:52;99981.31;;;24.39;60.78
41654;BME280;68687;52.030;7.110;2023-07-29T09:33:18;99976.06;;;24.09;60.63
41654;BME280;68687;52.030;7.110;2023-07-29T09:35:44;99988.06;;;23.89;63.05
41654;BME280;68687;52.030;7.110;2023-07-29T09:41:13;99994.94;;;23.81;60.46
41654;BME280;68687;52.030;7.110;2023-07-29T09:43:40;99986.84;;;23.17;62.85
41654;BME280;68687;52.030;7.110;2023-07-29T09:46:05;99994.53;;;24.27;62.19
41654;BME280;68687;52.030;7.110;2023-07-29T09:48:38;99992.09;;;24.25;60.65
41654;BME280;68687;52.030;7.110;2023-07-29T09:51:11;99997.00;;;24.81;61.68
41654;BME280;68687;52.030;7.110;2023-07-29T09:53:43;99985.56;;;24.74;60.98
41654;BME280;68687;52.030;7.110;2023-07-29T09:56:09;99989.25;;;24.41;62.00
41654;BME280;68687;52.030;7.110;2023-07-29T09:58:35;99996.44;;;24.31;61.19
41654;BME280;68687;52.030;7.110;2023-07-29T10:01:01;99983.53;;;24.03;60.91
41654;BME280;68687;52.030;7.110;2023-07-29T10:03:26;99995.81;;;23.77;62.39
41654;BME280;68687;52.030;7.110;2023-07-29T10:05:53;100012.75;;;23.84;63.30
41654;BME280;68687;52.030;7.110;2023-07-29T10:08:18;99996.66;;;23.72;61.83
41654;BME280;68687;52.030;7.110;2023-07-29T10:10:45;100008.16;;;24.08;62.20
41654;BME280;68687;52.030;7.110;2023-07-29T10:13:12;100007.81;;;23.81;63.39
41654;BME280;68687;52.030;7.110;2023-07-29T10:15:39;99997.97;;;24.14;61.92
41654;BME280;68687;52.030;7.110;2023-07-29T10:18:06;99993.03;;;24.69;63.26
41654;BME280;68687;52.030;7.110;2023-07-29T10:20:32;100001.94;;;24.26;63.47
41654;BME280;68687;52.030;7.110;2023-07-29T10:22:59;99995.72;;;23.48;64.33
41654;BME280;68687;52.030;7.110;2023-07-29T10:25:33;100001.63;;;23.70;63.81
41654;BME280;68687;52.030;7.110;2023-07-29T10:28:07;100001.53;;;23.80;63.05
41654;BME280;68687;52.030;7.110;2023-07-29T10:30:36;100014.81;;;24.31;63.12
41654;BME280;68687;52.030;7.110;2023-07-29T10:33:03;100006.22;;;24.43;62.63
41654;BME280;68687;52.030;7.110;2023-07-29T10:35:41;99998.22;;;24.17;60.48
41654;BME280;68687;52.030;7.110;2023-07-29T10:38:07;100005.50;;;23.98;63.45
41654;BME280;68687;52.030;7.110;2023-07-29T10:43:12;100000.63;;;24.53;61.49
41654;BME280;68687;52.030;7.110;2023-07-29T10:45:39;100000.56;;;25.06;60.29
41654;BME280;68687;52.030;7.110;2023-07-29T10:51:30;100003.59;;;24.80;59.79
41654;BME280;68687;52.030;7.110;2023-07-29T10:54:10;99998.34;;;25.08;56.96
41654;BME280;68687;52.030;7.110;2023-07-29T10:56:40;99994.63;;;24.75;58.69
41654;BME280;68687;52.030;7.110;2023-07-29T11:01:57;100005.81;;;25.26;58.35
41654;BME280;68687;52.030;7.110;2023-07-29T11:13:05;99997.25;;;24.32;60.78
41654;BME280;68687;52.030;7.110;2023-07-29T11:15:27;99994.53;;;24.56;60.39
41654;BME280;68687;52.030;7.110;2023-07-29T11:17:54;99995.94;;;24.24;59.97
41654;BME280;68687;52.030;7.110;2023-07-29T11:20:25;100004.47;;;24.52;60.80
41654;BME280;68687;52.030;7.110;2023-07-29T11:22:51;99990.75;;;24.52;60.92
41654;BME280;68687;52.030;7.110;2023-07-29T11:25:18;99999.50;;;23.96;61.42
41654;BME280;68687;52.030;7.110;2023-07-29T11:27:44;99999.69;;;23.70;60.88
41654;BME280;68687;52.030;7.110;2023-07-29T11:30:11;99995.13;;;24.24;60.59
41654;BME280;68687;52.030;7.110;2023-07-29T11:32:46;100000.78;;;23.69;60.84
41654;BME280;68687;52.030;7.110;2023-07-29T11:35:14;99996.47;;;23.53;61.52
41654;BME280;68687;52.030;7.110;2023-07-29T11:37:41;99994.84;;;23.62;62.03
41654;BME280;68687;52.030;7.110;2023-07-29T11:40:07;99999.69;;;23.70;62.17
41654;BME280;68687;52.030;7.110;2023-07-29T11:42:36;99991.63;;;23.45;63.10
41654;BME280;68687;52.030;7.110;2023-07-29T11:45:02;99998.09;;;23.15;63.65
41654;BME280;68687;52.030;7.110;2023-07-29T11:47:32;99998.41;;;23.08;67.23
41654;BME280;68687;52.030;7.110;2023-07-29T11:50:03;99997.66;;;23.42;70.32
41654;BME280;68687;52.030;7.110;2023-07-29T11:52:31;99975.13;;;23.50;69.42
41654;BME280;68687;52.030;7.110;2023-07-29T11:54:58;99977.47;;;23.28;70.50
41654;BME280;68687;52.030;7.110;2023-07-29T11:57:23;99981.53;;;23.80;67.91
41654;BME280;68687;52.030;7.110;2023-07-29T11:59:55;99984.00;;;24.10;66.62
41654;BME280;68687;52.030;7.110;2023-07-29T12:02:24;99986.06;;;24.28;67.81
41654;BME280;68687;52.030;7.110;2023-07-29T12:04:51;99982.97;;;24.59;64.00
41654;BME280;68687;52.030;7.110;2023-07-29T12:07:23;99982.94;;;24.40;64.36
41654;BME280;68687;52.030;7.110;2023-07-29T12:09:55;99987.72;;;23.61;64.82
41654;BME280;68687;52.030;7.110;2023-07-29T12:12:23;99987.44;;;23.63;64.34
41654;BME280;68687;52.030;7.110;2023-07-29T12:14:48;99989.03;;;23.69;65.69
41654;BME280;68687;52.030;7.110;2023-07-29T12:17:20;99981.81;;;24.12;62.93
41654;BME280;68687;52.030;7.110;2023-07-29T12:19:45;99982.06;;;23.82;62.54
41654;BME280;68687;52.030;7.110;2023-07-29T12:22:10;99971.69;;;24.08;63.78
41654;BME280;68687;52.030;7.110;2023-07-29T12:24:42;99974.72;;;24.40;64.15
41654;BME280;68687;52.030;7.110;2023-07-29T12:27:12;99968.28;;;24.50;63.25
41654;BME280;68687;52.030;7.110;2023-07-29T12:29:44;99962.84;;;23.87;63.73
41654;BME280;68687;52.030;7.110;2023-07-29T12:32:14;99971.03;;;24.50;62.98
41654;BME280;68687;52.030;7.110;2023-07-29T12:34:42;99964.72;;;24.49;61.01
41654;BME280;68687;52.030;7.110;2023-07-29T12:37:10;99974.00;;;24.24;60.38
41654;BME280;68687;52.030;7.110;2023-07-29T12:39:40;99970.34;;;24.39;63.22
41654;BME280;68687;52.030;7.110;2023-07-29T12:42:17;99957.81;;;24.52;61.53
41654;BME280;68687;52.030;7.110;2023-07-29T12:44:46;99962.94;;;24.34;60.63
41654;BME280;68687;52.030;7.110;2023-07-29T12:47:11;99967.13;;;24.27;60.59
41654;BME280;68687;52.030;7.110;2023-07-29T12:49:36;99962.13;;;24.05;60.70
41654;BME280;68687;52.030;7.110;2023-07-29T12:52:02;99962.56;;;24.17;61.19
41654;BME280;68687;52.030;7.110;2023-07-29T12:54:27;99977.81;;;24.28;64.62
41654;BME280;68687;52.030;7.110;2023-07-29T12:56:52;99981.84;;;24.07;68.57
41654;BME280;68687;52.030;7.110;2023-07-29T12:59:18;99988.53;;;23.62;74.44
41654;BME280;68687;52.030;7.110;2023-07-29T13:01:43;99979.28;;;23.03;75.29
41654;BME280;68687;52.030;7.110;2023-07-29T13:04:11;99979.75;;;23.16;76.26
41654;BME280;68687;52.030;7.110;2023-07-29T13:06:40;99985.44;;;23.24;78.25
41654;BME280;68687;52.030;7.110;2023-07-29T13:09:05;99970.44;;;23.17;80.01
41654;BME280;68687;52.030;7.110;2023-07-29T13:11:31;99978.72;;;23.06;78.40
41654;BME280;68687;52.030;7.110;2023-07-29T13:14:00;99988.03;;;23.00;77.76
41654;BME280;68687;52.030;7.110;2023-07-29T13:16:29;99993.50;;;23.05;78.65
41654;BME280;68687;52.030;7.110;2023-07-29T13:18:54;100003.94;;;22.93;78.59
41654;BME280;68687;52.030;7.110;2023-07-29T13:21:20;99999.34;;;22.84;77.54